Terminal Aerodrome Forecast
Issued by NWS

Home | Current Version | Previous Version | Text Only | Print | Product List | Glossary On
Versions: 1 2 3 4 5 6 7 8 9 10 11 12 13 14 15 16 17 18 19 20 21 22 23 24 25 26 27 28
000
FTUS41 KILN 231300 AAC
TAFLUK
TAF AMD
KLUK 231307Z 2313/2412 VRB03KT P6SM SCT250
     FM240300 00000KT P6SM BKN200
     FM240600 00000KT 3SM BR BKN200
      TEMPO 2408/2412 1/4SM FG VV002=

USA.gov is the U.S. government's official web portal to all federal, state and local government web resources and services.